createdAt,value
2019-01-26T00:00:37.855Z,176.45
2019-01-26T00:03:15.791Z,173.17
2019-01-26T00:05:52.623Z,161.07
2019-01-26T00:08:30.641Z,155.27
2019-01-26T00:11:09.668Z,147.43
2019-01-26T00:13:46.850Z,147.87
2019-01-26T00:16:23.621Z,151.42
2019-01-26T00:19:00.492Z,161.45
2019-01-26T00:21:37.388Z,147.85
2019-01-26T00:24:14.863Z,160.37
2019-01-26T00:26:52.269Z,136.15
2019-01-26T00:29:29.143Z,164.22
2019-01-26T00:32:06.123Z,153.60
2019-01-26T00:34:42.899Z,166.80
2019-01-26T00:37:19.674Z,164.70
2019-01-26T00:39:56.540Z,150.10
2019-01-26T00:42:33.521Z,155.40
2019-01-26T00:45:13.521Z,150.25
2019-01-26T00:47:50.246Z,160.82
2019-01-26T00:50:27.244Z,159.67
2019-01-26T00:53:04.217Z,161.35
2019-01-26T00:55:40.982Z,154.63
2019-01-26T00:58:23.528Z,163.07
2019-01-26T01:01:00.584Z,163.83
2019-01-26T01:03:37.418Z,166.18
2019-01-26T01:06:14.544Z,166.07
2019-01-26T01:08:52.344Z,173.65
2019-01-26T01:11:29.217Z,179.72
2019-01-26T01:14:05.887Z,165.68
2019-01-26T01:16:42.661Z,182.95
2019-01-26T01:19:20.372Z,172.07
2019-01-26T01:21:58.376Z,172.75
2019-01-26T01:24:35.153Z,176.63
2019-01-26T01:27:12.017Z,176.45
2019-01-26T01:29:48.915Z,167.20
2019-01-26T01:32:26.092Z,174.45
2019-01-26T01:35:02.978Z,181.63
2019-01-26T01:37:41.285Z,170.15
2019-01-26T01:40:18.565Z,172.00
2019-01-26T01:42:56.567Z,168.57
2019-01-26T01:45:33.347Z,167.60
2019-01-26T01:48:10.087Z,166.68
2019-01-26T01:50:48.334Z,166.07
2019-01-26T01:53:25.302Z,172.02
2019-01-26T01:56:02.195Z,169.97
2019-01-26T01:58:39.065Z,174.40
2019-01-26T02:01:15.835Z,171.05
2019-01-26T02:03:52.915Z,176.22
2019-01-26T02:06:29.692Z,165.12
2019-01-26T02:09:08.668Z,174.72
2019-01-26T02:11:45.529Z,176.30
2019-01-26T02:14:22.390Z,179.15
2019-01-26T02:17:00.188Z,182.95
2019-01-26T02:19:38.500Z,192.77
2019-01-26T02:22:15.473Z,165.73
2019-01-26T02:24:52.461Z,178.32
2019-01-26T02:27:31.997Z,172.50
2019-01-26T02:30:13.787Z,190.38
2019-01-26T02:32:50.661Z,169.80
2019-01-26T02:35:28.473Z,169.70
2019-01-26T02:38:05.244Z,178.57
2019-01-26T02:40:42.147Z,151.37
2019-01-26T02:43:19.101Z,167.55
2019-01-26T02:45:56.183Z,169.82
2019-01-26T02:48:33.212Z,181.93
2019-01-26T02:51:10.040Z,188.55
2019-01-26T02:53:48.051Z,186.03
2019-01-26T02:56:24.773Z,190.85
2019-01-26T02:59:02.615Z,191.25
2019-01-26T03:01:40.841Z,212.45
2019-01-26T03:04:17.616Z,210.35
2019-01-26T03:06:54.398Z,200.60
2019-01-26T03:09:31.257Z,197.72
2019-01-26T03:12:08.138Z,198.55
2019-01-26T03:14:45.227Z,196.63
2019-01-26T03:17:22.094Z,193.80
2019-01-26T03:20:00.728Z,193.85
2019-01-26T03:22:37.592Z,198.82
2019-01-26T03:25:16.765Z,202.93
2019-01-26T03:27:55.653Z,204.23
2019-01-26T03:30:32.749Z,187.47
2019-01-26T03:33:09.630Z,211.22
2019-01-26T03:35:46.290Z,186.80
2019-01-26T03:38:23.159Z,184.07
2019-01-26T03:41:00.243Z,172.40
2019-01-26T03:43:37.233Z,205.35
2019-01-26T03:46:14.214Z,186.10
2019-01-26T03:48:51.603Z,176.12
2019-01-26T03:51:28.576Z,165.20
2019-01-26T03:54:05.609Z,154.75
2019-01-26T03:56:43.463Z,165.62
2019-01-26T03:59:20.227Z,141.90
2019-01-26T04:01:57.116Z,153.78
2019-01-26T04:04:34.103Z,141.90
2019-01-26T04:07:10.969Z,142.43
2019-01-26T04:09:47.754Z,142.15
2019-01-26T04:12:24.731Z,139.95
2019-01-26T04:15:01.710Z,145.47
2019-01-26T04:17:38.685Z,140.68
2019-01-26T04:20:18.615Z,138.03
2019-01-26T04:22:55.523Z,149.82
2019-01-26T04:25:32.295Z,149.95
2019-01-26T04:28:09.067Z,151.60
2019-01-26T04:30:45.848Z,152.60
2019-01-26T04:33:22.826Z,147.57
2019-01-26T04:35:59.708Z,141.62
2019-01-26T04:38:36.489Z,138.47
2019-01-26T04:41:13.255Z,144.15
2019-01-26T04:43:50.241Z,134.85
2019-01-26T04:46:27.114Z,144.95
2019-01-26T04:49:05.832Z,133.45
2019-01-26T04:51:42.818Z,131.35
2019-01-26T04:54:20.823Z,135.00
2019-01-26T04:56:58.010Z,139.68
2019-01-26T04:59:34.883Z,134.93
2019-01-26T05:02:11.863Z,146.13
2019-01-26T05:04:48.645Z,146.68
2019-01-26T05:07:25.416Z,147.82
2019-01-26T05:10:03.107Z,146.75
2019-01-26T05:12:39.980Z,135.10
2019-01-26T05:15:17.804Z,137.07
2019-01-26T05:17:54.612Z,130.27
2019-01-26T05:20:31.466Z,133.95
2019-01-26T05:23:09.756Z,131.03
2019-01-26T05:25:46.636Z,135.18
2019-01-26T05:28:23.613Z,135.68
2019-01-26T05:31:00.414Z,129.25
2019-01-26T05:33:37.154Z,129.63
2019-01-26T05:36:14.455Z,137.30
2019-01-26T05:38:51.226Z,133.10
2019-01-26T05:41:28.111Z,132.40
2019-01-26T05:44:05.180Z,131.18
2019-01-26T05:46:41.969Z,129.40
2019-01-26T05:49:18.942Z,126.35
2019-01-26T05:51:55.921Z,131.63
2019-01-26T05:54:32.697Z,144.43
2019-01-26T05:57:09.463Z,144.90
2019-01-26T05:59:46.250Z,127.47
2019-01-26T06:02:23.231Z,137.62
2019-01-26T06:05:00.256Z,145.17
2019-01-26T06:07:37.289Z,129.30
2019-01-26T06:10:14.062Z,127.83
2019-01-26T06:12:51.047Z,140.90
2019-01-26T06:15:28.034Z,145.43
2019-01-26T06:18:05.006Z,129.38
2019-01-26T06:20:41.741Z,133.03
2019-01-26T06:23:18.761Z,137.32
2019-01-26T06:25:55.741Z,137.60
2019-01-26T06:28:32.614Z,135.20
2019-01-26T06:31:09.601Z,132.25
2019-01-26T06:33:46.575Z,128.75
2019-01-26T06:36:23.464Z,132.43
2019-01-26T06:39:00.432Z,142.00
2019-01-26T06:41:37.633Z,132.50
2019-01-26T06:44:14.522Z,136.18
2019-01-26T06:46:51.286Z,140.32
2019-01-26T06:49:28.166Z,125.87
2019-01-26T06:52:06.267Z,131.25
2019-01-26T06:54:43.151Z,147.82
2019-01-26T06:57:20.030Z,160.20
2019-01-26T06:59:56.757Z,152.57
2019-01-26T07:02:33.553Z,149.95
2019-01-26T07:05:15.231Z,157.18
2019-01-26T07:07:52.055Z,169.15
2019-01-26T07:10:28.837Z,157.85
2019-01-26T07:13:05.552Z,188.95
2019-01-26T07:15:42.330Z,184.63
2019-01-26T07:18:19.146Z,156.52
2019-01-26T07:20:56.005Z,165.57
2019-01-26T07:23:32.815Z,140.45
2019-01-26T07:26:10.038Z,139.43
2019-01-26T07:28:46.846Z,173.53
2019-01-26T07:31:23.562Z,141.55
2019-01-26T07:34:00.290Z,206.38
2019-01-26T07:36:37.150Z,278.25
2019-01-26T07:39:13.910Z,258.02
2019-01-26T07:41:50.667Z,353.65
2019-01-26T07:44:27.461Z,477.65
2019-01-26T07:47:04.673Z,182.72
2019-01-26T07:49:41.348Z,186.12
2019-01-26T07:52:18.158Z,165.47
2019-01-26T07:54:54.965Z,186.80
2019-01-26T07:57:31.787Z,195.22
2019-01-26T08:00:15.593Z,172.68
2019-01-26T08:02:52.445Z,139.18
2019-01-26T08:05:29.821Z,142.20
2019-01-26T08:08:06.686Z,137.10
2019-01-26T08:10:44.837Z,141.97
2019-01-26T08:13:21.776Z,124.50
2019-01-26T08:15:58.669Z,121.80
2019-01-26T08:18:35.691Z,120.35
2019-01-26T08:21:12.581Z,116.53
2019-01-26T08:23:49.398Z,131.45
2019-01-26T08:26:26.572Z,133.60
2019-01-26T08:29:03.271Z,136.32
2019-01-26T08:31:40.155Z,137.03
2019-01-26T08:34:16.941Z,153.93
2019-01-26T08:36:53.875Z,196.18
2019-01-26T08:39:30.929Z,166.35
2019-01-26T08:42:07.670Z,168.07
2019-01-26T08:44:44.494Z,147.05
2019-01-26T08:47:22.208Z,173.80
2019-01-26T08:49:58.958Z,205.18
2019-01-26T08:52:35.854Z,184.55
2019-01-26T08:55:18.097Z,239.88
2019-01-26T08:57:52.318Z,212.78
2019-01-26T09:00:29.757Z,170.53
2019-01-26T09:03:08.091Z,174.93
2019-01-26T09:05:52.444Z,195.35
2019-01-26T09:08:29.320Z,211.07
2019-01-26T09:11:06.170Z,167.98
2019-01-26T09:13:42.938Z,196.78
2019-01-26T09:16:19.745Z,225.47
2019-01-26T09:18:56.530Z,199.55
2019-01-26T09:21:33.301Z,244.60
2019-01-26T09:24:10.044Z,276.10
2019-01-26T09:26:47.058Z,248.38
2019-01-26T09:29:23.919Z,197.70
2019-01-26T09:32:00.763Z,212.00
2019-01-26T09:34:37.439Z,192.68
2019-01-26T09:37:14.144Z,243.48
2019-01-26T09:39:50.828Z,164.32
2019-01-26T09:42:27.606Z,186.05
2019-01-26T09:45:06.023Z,185.80
2019-01-26T09:47:42.692Z,204.38
2019-01-26T09:50:20.900Z,215.83
2019-01-26T09:52:57.888Z,233.43
2019-01-26T09:55:34.864Z,185.50
2019-01-26T09:58:11.696Z,192.35
2019-01-26T10:00:48.374Z,172.55
2019-01-26T10:03:25.297Z,228.88
2019-01-26T10:10:52.788Z,457.47
2019-01-26T10:13:29.660Z,350.20
2019-01-26T10:16:06.532Z,530.03
2019-01-26T10:21:05.246Z,363.35
2019-01-26T10:23:42.129Z,450.00
2019-01-26T10:26:19.174Z,342.30
2019-01-26T10:28:55.978Z,87.67
2019-01-26T10:31:32.766Z,134.70
2019-01-26T10:34:09.768Z,252.68
2019-01-26T10:42:16.312Z,314.82
2019-01-26T10:44:53.551Z,145.92
2019-01-26T10:47:30.329Z,233.63
2019-01-26T10:50:09.421Z,145.55
2019-01-26T10:52:46.274Z,132.67
2019-01-26T10:55:23.009Z,175.00
2019-01-26T10:57:59.816Z,122.33
2019-01-26T11:00:36.536Z,77.32
2019-01-26T11:03:13.343Z,91.67
2019-01-26T11:05:50.056Z,102.72
2019-01-26T11:08:27.231Z,92.55
2019-01-26T11:11:04.022Z,83.85
2019-01-26T11:13:40.784Z,71.22
2019-01-26T11:16:17.492Z,77.20
2019-01-26T11:18:54.190Z,77.75
2019-01-26T11:21:31.060Z,82.80
2019-01-26T11:24:08.054Z,78.65
2019-01-26T11:26:49.309Z,88.37
2019-01-26T11:29:23.491Z,108.70
2019-01-26T11:32:00.201Z,93.15
2019-01-26T11:34:37.145Z,85.20
2019-01-26T11:37:13.859Z,72.90
2019-01-26T11:39:52.251Z,212.23
2019-01-26T11:42:30.072Z,170.20
2019-01-26T11:45:12.702Z,252.07
2019-01-26T11:47:49.588Z,152.87
2019-01-26T11:50:27.921Z,166.32
2019-01-26T11:53:05.011Z,95.53
2019-01-26T11:55:43.247Z,78.10
2019-01-26T11:58:20.030Z,75.15
2019-01-26T12:00:59.589Z,62.65
2019-01-26T12:03:38.286Z,70.62
2019-01-26T12:06:19.320Z,84.50
2019-01-26T12:08:56.119Z,85.38
2019-01-26T12:11:32.787Z,105.52
2019-01-26T12:14:09.556Z,83.25
2019-01-26T12:16:46.674Z,91.50
2019-01-26T12:19:23.559Z,86.17
2019-01-26T12:22:00.749Z,73.02
2019-01-26T12:24:37.625Z,65.65
2019-01-26T12:27:14.606Z,72.08
2019-01-26T12:29:51.470Z,88.37
2019-01-26T12:32:28.270Z,99.28
2019-01-26T12:35:16.698Z,73.33
2019-01-26T12:37:53.687Z,69.87
2019-01-26T12:40:30.463Z,79.50
2019-01-26T12:43:08.461Z,83.90
2019-01-26T12:45:45.244Z,98.20
2019-01-26T12:48:22.219Z,72.78
2019-01-26T12:50:58.937Z,77.00
2019-01-26T12:53:35.877Z,75.10
2019-01-26T12:56:12.745Z,75.52
2019-01-26T12:58:49.719Z,78.67
2019-01-26T13:01:26.604Z,75.77
2019-01-26T13:04:03.487Z,72.27
2019-01-26T13:06:40.362Z,82.33
2019-01-26T13:09:17.337Z,81.32
2019-01-26T13:11:54.233Z,85.72
2019-01-26T13:14:31.096Z,80.53
2019-01-26T13:17:08.088Z,88.33
2019-01-26T13:19:44.953Z,79.80
2019-01-26T13:22:22.245Z,73.62
2019-01-26T13:24:59.018Z,84.07
2019-01-26T13:27:35.900Z,80.97
2019-01-26T13:30:17.565Z,88.40
2019-01-26T13:32:54.560Z,81.02
2019-01-26T13:35:31.448Z,88.05
2019-01-26T13:38:08.228Z,86.40
2019-01-26T13:40:45.007Z,92.78
2019-01-26T13:43:21.979Z,95.75
2019-01-26T13:45:58.769Z,102.27
2019-01-26T13:48:35.623Z,96.00
2019-01-26T13:51:13.036Z,94.37
2019-01-26T13:53:50.221Z,90.40
2019-01-26T13:56:26.986Z,90.32
2019-01-26T13:59:03.750Z,93.15
2019-01-26T14:01:40.739Z,94.65
2019-01-26T14:04:17.607Z,86.72
2019-01-26T14:06:55.011Z,96.30
2019-01-26T14:09:31.887Z,102.27
2019-01-26T14:12:08.773Z,131.87
2019-01-26T14:14:45.646Z,119.05
2019-01-26T14:17:22.631Z,96.17
2019-01-26T14:19:59.490Z,81.25
2019-01-26T14:22:36.482Z,105.55
2019-01-26T14:25:15.626Z,92.90
2019-01-26T14:27:52.493Z,100.42
2019-01-26T14:30:42.374Z,100.97
2019-01-26T14:33:19.307Z,97.53
2019-01-26T14:35:56.094Z,92.02
2019-01-26T14:38:33.898Z,95.92
2019-01-26T14:41:10.627Z,91.05
2019-01-26T14:43:47.574Z,99.10
2019-01-26T14:46:24.384Z,105.15
2019-01-26T14:49:01.241Z,117.60
2019-01-26T14:51:38.005Z,103.20
2019-01-26T14:54:14.801Z,97.08
2019-01-26T14:56:51.523Z,103.27
2019-01-26T14:59:28.292Z,99.37
2019-01-26T15:02:05.147Z,99.17
2019-01-26T15:04:42.008Z,97.42
2019-01-26T15:07:18.902Z,116.57
2019-01-26T15:09:55.652Z,143.40
2019-01-26T15:12:32.518Z,104.85
2019-01-26T15:15:16.529Z,105.27
2019-01-26T15:17:53.455Z,121.67
2019-01-26T15:20:39.615Z,127.10
2019-01-26T15:23:16.413Z,107.75
2019-01-26T15:25:53.195Z,113.85
2019-01-26T15:28:29.897Z,126.50
2019-01-26T15:31:06.944Z,111.42
2019-01-26T15:33:43.809Z,106.90
2019-01-26T15:36:20.609Z,138.10
2019-01-26T15:38:57.670Z,130.87
2019-01-26T15:41:34.487Z,120.85
2019-01-26T15:44:11.203Z,126.27
2019-01-26T15:46:48.003Z,117.30
2019-01-26T15:49:24.801Z,113.57
2019-01-26T15:52:01.802Z,215.75
2019-01-26T15:54:38.534Z,198.43
2019-01-26T15:57:15.293Z,131.05
2019-01-26T15:59:53.556Z,121.07
2019-01-26T16:02:30.376Z,129.90
2019-01-26T16:05:09.248Z,133.40
2019-01-26T16:07:45.991Z,127.80
2019-01-26T16:10:25.102Z,111.80
2019-01-26T16:13:01.834Z,112.75
2019-01-26T16:15:39.661Z,116.55
2019-01-26T16:18:16.381Z,135.63
2019-01-26T16:20:53.212Z,118.17
2019-01-26T16:23:30.080Z,103.53
2019-01-26T16:26:06.858Z,98.10
2019-01-26T16:28:43.570Z,109.67
2019-01-26T16:31:20.679Z,121.02
2019-01-26T16:33:57.467Z,109.57
2019-01-26T16:36:34.193Z,114.52
2019-01-26T16:39:10.940Z,114.03
2019-01-26T16:41:47.776Z,133.60
2019-01-26T16:44:24.571Z,148.35
2019-01-26T16:47:01.399Z,142.65
2019-01-26T16:49:38.319Z,133.05
2019-01-26T16:52:15.278Z,136.10
2019-01-26T16:54:51.984Z,126.60
2019-01-26T16:57:28.826Z,122.60
2019-01-26T17:00:13.324Z,122.54
2019-01-26T17:02:50.196Z,114.97
2019-01-26T17:05:27.073Z,116.85
2019-01-26T17:08:03.871Z,120.92
2019-01-26T17:10:41.223Z,117.77
2019-01-26T17:13:17.989Z,114.60
2019-01-26T17:15:55.053Z,120.15
2019-01-26T17:18:31.896Z,124.12
2019-01-26T17:21:08.635Z,111.62
2019-01-26T17:23:45.608Z,117.00
2019-01-26T17:26:22.692Z,122.85
2019-01-26T17:28:59.576Z,115.92
2019-01-26T17:31:37.471Z,125.12
2019-01-26T17:34:14.453Z,136.68
2019-01-26T17:36:51.144Z,145.55
2019-01-26T17:39:27.896Z,153.80
2019-01-26T17:42:04.867Z,139.62
2019-01-26T17:44:41.756Z,146.45
2019-01-26T17:47:18.626Z,146.57
2019-01-26T17:49:55.516Z,140.00
2019-01-26T17:52:32.489Z,138.75
2019-01-26T17:55:11.827Z,145.38
2019-01-26T17:57:49.212Z,137.03
2019-01-26T18:00:47.301Z,143.30
2019-01-26T18:03:24.174Z,132.25
2019-01-26T18:06:01.045Z,114.28
2019-01-26T18:08:38.022Z,127.55
2019-01-26T18:11:15.013Z,125.47
2019-01-26T18:13:51.889Z,143.85
2019-01-26T18:16:28.860Z,136.88
2019-01-26T18:19:05.746Z,128.68
2019-01-26T18:21:42.723Z,119.42
2019-01-26T18:24:19.500Z,130.40
2019-01-26T18:26:56.479Z,174.80
2019-01-26T18:29:33.562Z,270.12
2019-01-26T18:32:10.449Z,218.70
2019-01-26T18:34:47.213Z,152.17
2019-01-26T18:37:25.163Z,130.47
2019-01-26T18:40:02.202Z,123.40
2019-01-26T18:42:39.803Z,116.45
2019-01-26T18:45:19.956Z,121.75
2019-01-26T18:47:56.726Z,119.47
2019-01-26T18:50:43.577Z,103.60
2019-01-26T18:53:20.634Z,145.17
2019-01-26T18:55:57.607Z,221.80
2019-01-26T18:58:34.579Z,287.25
2019-01-26T19:01:11.559Z,159.03
2019-01-26T19:03:56.123Z,140.60
2019-01-26T19:06:33.321Z,135.93
2019-01-26T19:09:10.804Z,139.18
2019-01-26T19:11:47.870Z,121.33
2019-01-26T19:14:25.882Z,110.63
2019-01-26T19:17:02.759Z,116.35
2019-01-26T19:19:39.543Z,122.82
2019-01-26T19:22:16.627Z,116.00
2019-01-26T19:24:53.706Z,157.75
2019-01-26T19:27:31.083Z,173.50
2019-01-26T19:30:12.682Z,168.78
2019-01-26T19:32:49.549Z,147.02
2019-01-26T19:35:26.530Z,159.40
2019-01-26T19:38:03.734Z,158.70
2019-01-26T19:40:40.432Z,178.68
2019-01-26T19:43:17.213Z,157.62
2019-01-26T19:45:53.928Z,180.00
2019-01-26T19:48:30.667Z,171.10
2019-01-26T19:51:10.002Z,152.35
2019-01-26T19:53:46.003Z,154.87
2019-01-26T19:56:22.779Z,156.35
2019-01-26T19:59:00.611Z,177.38
2019-01-26T20:01:37.356Z,213.28
2019-01-26T20:04:14.199Z,206.07
2019-01-26T20:06:52.303Z,255.77
2019-01-26T20:09:29.107Z,239.23
2019-01-26T20:12:06.055Z,207.22
2019-01-26T20:14:42.820Z,202.45
2019-01-26T20:17:20.335Z,582.20
2019-01-26T20:19:57.129Z,271.93
2019-01-26T20:22:33.936Z,231.13
2019-01-26T20:25:10.715Z,239.05
2019-01-26T20:27:47.455Z,237.02
2019-01-26T20:30:30.555Z,231.37
2019-01-26T20:33:08.105Z,219.65
2019-01-26T20:35:44.836Z,190.43
2019-01-26T20:38:23.087Z,224.75
2019-01-26T20:41:00.017Z,265.05
2019-01-26T20:43:37.080Z,240.45
2019-01-26T20:46:13.820Z,201.80
2019-01-26T20:48:50.591Z,218.40
2019-01-26T20:51:27.359Z,213.45
2019-01-26T20:54:04.133Z,236.10
2019-01-26T20:56:41.066Z,249.90
2019-01-26T20:59:17.890Z,241.85
2019-01-26T21:01:54.742Z,244.10
2019-01-26T21:04:31.957Z,284.57
2019-01-26T21:07:08.839Z,259.15
2019-01-26T21:09:45.709Z,285.43
2019-01-26T21:12:22.595Z,286.80
2019-01-26T21:15:04.557Z,403.12
2019-01-26T21:17:38.304Z,421.72
2019-01-26T21:20:18.583Z,381.80
2019-01-26T21:22:55.425Z,215.35
2019-01-26T21:25:32.117Z,270.00
2019-01-26T21:28:08.982Z,201.90
2019-01-26T21:30:45.860Z,188.52
2019-01-26T21:33:23.715Z,205.00
2019-01-26T21:36:00.531Z,206.97
2019-01-26T21:38:37.633Z,195.35
2019-01-26T21:41:14.713Z,278.95
2019-01-26T21:43:51.473Z,267.70
2019-01-26T21:46:28.719Z,236.82
2019-01-26T21:49:14.971Z,236.00
2019-01-26T21:51:52.224Z,243.07
2019-01-26T21:54:29.240Z,299.48
2019-01-26T21:57:07.244Z,266.25
2019-01-26T21:59:44.107Z,280.50
2019-01-26T22:02:20.991Z,245.93
2019-01-26T22:04:59.764Z,266.08
2019-01-26T22:07:37.218Z,238.60
2019-01-26T22:10:28.359Z,223.80
2019-01-26T22:13:05.192Z,224.15
2019-01-26T22:15:41.962Z,278.65
2019-01-26T22:18:18.956Z,283.15
2019-01-26T22:20:55.931Z,363.43
2019-01-26T22:23:32.809Z,486.73
2019-01-26T22:26:09.679Z,354.18
2019-01-26T22:28:46.470Z,300.82
2019-01-26T22:31:24.324Z,291.63
2019-01-26T22:34:01.247Z,236.95
2019-01-26T22:36:38.023Z,291.82
2019-01-26T22:39:14.901Z,340.35
2019-01-26T22:41:52.082Z,383.70
2019-01-26T22:44:28.959Z,448.37
2019-01-26T22:47:05.934Z,509.35
2019-01-26T22:49:42.822Z,445.45
2019-01-26T22:52:32.699Z,388.90
2019-01-26T22:55:15.735Z,402.75
2019-01-26T22:57:52.436Z,285.05
2019-01-26T23:00:56.317Z,268.67
2019-01-26T23:03:50.908Z,264.75
2019-01-26T23:06:51.963Z,249.02
2019-01-26T23:09:38.967Z,234.18
2019-01-26T23:12:29.160Z,235.93
2019-01-26T23:15:36.228Z,248.57
2019-01-26T23:18:26.932Z,246.95
2019-01-26T23:21:25.225Z,225.87
2019-01-26T23:24:36.970Z,201.70
2019-01-26T23:27:27.610Z,140.82
2019-01-26T23:30:32.760Z,122.45
2019-01-26T23:33:09.733Z,201.10
2019-01-26T23:35:46.623Z,166.00
2019-01-26T23:38:23.594Z,140.90
2019-01-26T23:41:00.472Z,167.25
2019-01-26T23:43:37.457Z,167.25
2019-01-26T23:46:14.220Z,146.47
2019-01-26T23:48:51.406Z,139.18
2019-01-26T23:51:28.598Z,135.48
2019-01-26T23:54:05.379Z,141.40
2019-01-26T23:56:42.258Z,139.05
2019-01-26T23:59:19.033Z,130.65
